Toledo, OH (43617)

11:37 AM EDT on May 22, 2015 (GMT -0400)
KOHHOLLA2 | | Change Station
CLOSE
Current Station
Personal Weather Station
Location: Holland, OH
Elevation: 656 ft
Nearby Weather Stations

Elev 656 ft 41.64 °N, 83.72 °W | Updated 4 seconds ago

Clear
Clear
61.7 °F
Feels Like 61.7 °F
N
1.0
Wind Variable Wind from SSE
Gusts 4.0 mph

Today
High -- | Low -- °F
--% Chance of Precip.
Yesterday
High -- | Low -- °F
Precip. -- in
6:09 AM 8:54 PM
Waxing Crescent, 22% visible
Pressure 30.18 in
Visibility 10.0 miles
Clouds Clear
Dew Point 31 °F
Humidity 31%
Rainfall 0.00 in
Snow Depth Not available.
UV 8 out of 12
Pollen 9.40 out of 12
Air Quality Not available.
Flu Activity Local Activity
METAR KTDZ 221453Z AUTO 36008KT 10SM CLR 17/M04 A3018 RMK AO2 SLP218 T01671044 51018 TSNO

More Conditions Fewer Conditions

Pressure 30.18 in
Visibility 10.0 miles
Clouds Clear
Dew Point 31 °F
Humidity 31%
Rainfall 0.00 in
Snow Depth Not available.
UV 8 out of 12
Pollen 9.40 out of 12
Air Quality Not available.
Flu Activity Local Activity
METAR KTDZ 221453Z AUTO 36008KT 10SM CLR 17/M04 A3018 RMK AO2 SLP218 T01671044 51018 TSNO

More Conditions Fewer Conditions

10-Day Weather Forecast

Almanac

Astronomy

May. 22, 2015 Rise Set
Actual Time
Civil Twilight
Nautical Twilight
Astronomical Twilight
Moon
Length of Visible Light
Length of Day
Tomorrow will be .
, % of the Moon is Illuminated

Today's Extremes

State Highs State Lows

Community

WunderPhotos

Upload Photos

1,823,244 photos uploaded!

WunderBlogs® & News

Nearby

Air Quality

  Air Quality AQ Index Pollutant
Not available.

Snow Depth

Station Depth Elevation

Earthquake Activity

City Distance Mag. Time & Date
Minimum magnitude displayed is 2.5.

Coastal Water Temperatures

Place Temperature

Stations

Nearby Weather Stations

Station Location Temp. Windchill Dew Point Humidity Wind Precip. Elev Updated Type